createdAt,value
2023-11-08T00:01:59.472Z,6.48
2023-11-08T00:11:59.648Z,5.96
2023-11-08T00:21:59.922Z,5.86
2023-11-08T00:31:59.969Z,5.61
2023-11-08T00:42:02.152Z,5.72
2023-11-08T00:52:00.338Z,5.71
2023-11-08T01:02:00.602Z,5.61
2023-11-08T01:12:00.795Z,5.56
2023-11-08T01:22:02.999Z,5.86
2023-11-08T01:32:01.268Z,5.60
2023-11-08T01:42:01.530Z,5.51
2023-11-08T01:52:01.711Z,5.64
2023-11-08T02:02:01.997Z,5.48
2023-11-08T02:12:01.975Z,5.42
2023-11-08T02:22:02.260Z,5.45
2023-11-08T02:32:02.255Z,5.48
2023-11-08T02:42:02.540Z,5.31
2023-11-08T02:52:02.593Z,5.27
2023-11-08T03:02:04.743Z,5.35
2023-11-08T03:12:02.921Z,5.20
2023-11-08T03:22:03.179Z,5.07
2023-11-08T03:32:03.201Z,5.15
2023-11-08T03:42:03.477Z,5.13
2023-11-08T03:52:03.455Z,5.35
2023-11-08T04:02:03.826Z,5.31
2023-11-08T04:12:03.787Z,5.22
2023-11-08T04:22:04.024Z,5.22
2023-11-08T04:32:04.170Z,5.07
2023-11-08T04:42:04.448Z,4.96
2023-11-08T04:52:04.424Z,4.91
2023-11-08T05:02:04.729Z,4.94
2023-11-08T05:12:04.702Z,4.97
2023-11-08T05:22:04.988Z,5.09
2023-11-08T05:32:04.983Z,5.18
2023-11-08T05:42:05.254Z,5.10
2023-11-08T05:52:05.238Z,5.02
2023-11-08T06:02:05.545Z,4.85
2023-11-08T06:12:05.837Z,4.75
2023-11-08T06:22:06.713Z,4.84
2023-11-08T06:32:05.913Z,4.70
2023-11-08T06:42:06.162Z,4.66
2023-11-08T06:52:06.367Z,4.72
2023-11-08T07:02:06.533Z,4.69
2023-11-08T07:12:06.710Z,4.75
2023-11-08T07:22:07.006Z,4.91
2023-11-08T07:32:07.040Z,5.24
2023-11-08T07:42:07.744Z,5.39
2023-11-08T07:52:07.481Z,5.74
2023-11-08T08:02:08.878Z,6.11
2023-11-08T08:12:07.901Z,6.54
2023-11-08T08:22:08.269Z,6.80
2023-11-08T08:32:08.268Z,7.15
2023-11-08T08:42:08.668Z,7.27
2023-11-08T08:52:08.665Z,7.55
2023-11-08T09:02:08.865Z,8.28
2023-11-08T09:12:09.062Z,8.41
2023-11-08T09:22:09.391Z,8.86
2023-11-08T09:32:09.396Z,9.42
2023-11-08T09:42:09.638Z,9.42
2023-11-08T09:52:09.830Z,10.29
2023-11-08T10:02:10.081Z,10.66
2023-11-08T10:12:10.567Z,10.59
2023-11-08T10:22:10.486Z,10.55
2023-11-08T10:32:10.537Z,11.07
2023-11-08T10:42:10.709Z,11.25
2023-11-08T10:52:10.993Z,11.49
2023-11-08T11:02:11.192Z,11.82
2023-11-08T11:12:11.379Z,11.88
2023-11-08T11:22:13.606Z,12.42
2023-11-08T11:32:11.831Z,12.29
2023-11-08T11:42:12.059Z,12.50
2023-11-08T11:52:12.089Z,12.64
2023-11-08T12:02:12.308Z,12.82
2023-11-08T12:12:12.491Z,13.01
2023-11-08T12:22:12.795Z,13.33
2023-11-08T12:32:12.746Z,14.06
2023-11-08T12:42:13.037Z,14.32
2023-11-08T12:52:13.162Z,14.40
2023-11-08T13:02:13.255Z,13.91
2023-11-08T13:12:13.205Z,14.17
2023-11-08T13:22:15.460Z,13.99
2023-11-08T13:32:13.619Z,13.77
2023-11-08T13:42:13.863Z,14.28
2023-11-08T13:52:15.964Z,14.00
2023-11-08T14:02:15.236Z,13.64
2023-11-08T14:12:15.277Z,12.96
2023-11-08T14:22:14.510Z,12.77
2023-11-08T14:32:14.676Z,12.56
2023-11-08T14:42:14.972Z,12.47
2023-11-08T14:52:14.984Z,12.05
2023-11-08T15:02:15.234Z,11.33
2023-11-08T15:12:15.213Z,10.74
2023-11-08T15:22:15.611Z,10.14
2023-11-08T15:32:15.577Z,10.11
2023-11-08T15:42:15.879Z,10.26
2023-11-08T15:52:15.872Z,10.04
2023-11-08T16:02:16.137Z,9.61
2023-11-08T16:12:16.113Z,9.36
2023-11-08T16:22:16.489Z,8.59
2023-11-08T16:32:35.159Z,8.15
2023-11-08T16:42:17.942Z,8.10
2023-11-08T16:52:17.293Z,7.95
2023-11-08T17:02:17.194Z,7.60
2023-11-08T17:12:17.302Z,8.16
2023-11-08T17:22:17.551Z,8.16
2023-11-08T17:32:17.770Z,8.10
2023-11-08T17:42:17.998Z,8.12
2023-11-08T17:52:20.112Z,7.93
2023-11-08T18:02:18.262Z,7.80
2023-11-08T18:12:18.473Z,7.74
2023-11-08T18:22:18.681Z,7.63
2023-11-08T18:32:18.828Z,7.37
2023-11-08T18:42:19.055Z,7.34
2023-11-08T18:52:19.350Z,7.34
2023-11-08T19:02:19.220Z,7.16
2023-11-08T19:12:19.443Z,7.12
2023-11-08T19:22:20.122Z,7.21
2023-11-08T19:32:20.886Z,7.02
2023-11-08T19:42:20.059Z,6.92
2023-11-08T19:52:20.395Z,6.88
2023-11-08T20:02:23.153Z,6.73
2023-11-08T20:12:20.552Z,6.79
2023-11-08T20:22:20.738Z,6.70
2023-11-08T20:32:21.873Z,6.56
2023-11-08T20:42:21.907Z,6.51
2023-11-08T20:52:21.249Z,6.51
2023-11-08T21:02:21.092Z,6.85
2023-11-08T21:12:21.368Z,7.06
2023-11-08T21:22:21.418Z,6.88
2023-11-08T21:32:21.631Z,6.94
2023-11-08T21:42:21.956Z,7.52
2023-11-08T21:52:22.030Z,7.93
2023-11-08T22:02:22.200Z,8.08
2023-11-08T22:12:22.483Z,7.64
2023-11-08T22:22:22.544Z,7.13
2023-11-08T22:32:22.750Z,7.61
2023-11-08T22:42:22.924Z,7.30
2023-11-08T22:52:23.178Z,5.76
2023-11-08T23:02:23.332Z,4.94
2023-11-08T23:12:23.519Z,4.48
2023-11-08T23:22:23.758Z,4.37
2023-11-08T23:32:26.443Z,4.20
2023-11-08T23:42:24.133Z,4.33
2023-11-08T23:52:24.436Z,4.63
